sensor_id;sensor_type;location;lat;lon;timestamp;temperature;humidity
44517;DHT22;30223;17.182;-96.766;2023-05-01T00:00:33;30.00;51.50
44517;DHT22;30223;17.182;-96.766;2023-05-01T00:03:00;29.90;51.50
44517;DHT22;30223;17.182;-96.766;2023-05-01T00:05:27;29.90;51.40
44517;DHT22;30223;17.182;-96.766;2023-05-01T00:07:54;29.90;51.50
44517;DHT22;30223;17.182;-96.766;2023-05-01T00:10:20;29.90;51.50
44517;DHT22;30223;17.182;-96.766;2023-05-01T00:12:47;29.90;51.40
44517;DHT22;30223;17.182;-96.766;2023-05-01T00:15:14;29.90;51.50
44517;DHT22;30223;17.182;-96.766;2023-05-01T00:17:41;29.90;51.40
44517;DHT22;30223;17.182;-96.766;2023-05-01T00:20:08;29.90;51.50
44517;DHT22;30223;17.182;-96.766;2023-05-01T00:22:35;29.80;51.40
44517;DHT22;30223;17.182;-96.766;2023-05-01T00:25:01;29.80;51.40
44517;DHT22;30223;17.182;-96.766;2023-05-01T00:38:38;29.80;51.00
44517;DHT22;30223;17.182;-96.766;2023-05-01T00:41:08;29.80;51.30
44517;DHT22;30223;17.182;-96.766;2023-05-01T00:43:34;29.70;51.30
44517;DHT22;30223;17.182;-96.766;2023-05-01T00:46:02;29.70;51.40
44517;DHT22;30223;17.182;-96.766;2023-05-01T00:48:28;29.70;51.50
44517;DHT22;30223;17.182;-96.766;2023-05-01T00:50:56;29.70;51.50
44517;DHT22;30223;17.182;-96.766;2023-05-01T00:53:24;29.60;51.40
44517;DHT22;30223;17.182;-96.766;2023-05-01T00:55:51;29.60;51.70
44517;DHT22;30223;17.182;-96.766;2023-05-01T00:58:18;29.60;51.70
44517;DHT22;30223;17.182;-96.766;2023-05-01T01:00:45;29.60;51.70
44517;DHT22;30223;17.182;-96.766;2023-05-01T01:03:12;29.60;51.80
44517;DHT22;30223;17.182;-96.766;2023-05-01T01:05:42;29.60;51.80
44517;DHT22;30223;17.182;-96.766;2023-05-01T01:08:29;29.60;51.90
44517;DHT22;30223;17.182;-96.766;2023-05-01T01:11:30;29.50;51.90
44517;DHT22;30223;17.182;-96.766;2023-05-01T01:14:11;29.50;52.00
44517;DHT22;30223;17.182;-96.766;2023-05-01T01:16:51;29.50;52.20
44517;DHT22;30223;17.182;-96.766;2023-05-01T01:21:54;29.50;52.30
44517;DHT22;30223;17.182;-96.766;2023-05-01T01:24:47;29.50;52.30
44517;DHT22;30223;17.182;-96.766;2023-05-01T01:27:48;29.40;52.40
44517;DHT22;30223;17.182;-96.766;2023-05-01T01:36:59;29.40;52.60
44517;DHT22;30223;17.182;-96.766;2023-05-01T01:42:07;29.30;52.60
44517;DHT22;30223;17.182;-96.766;2023-05-01T01:44:45;29.30;52.60
44517;DHT22;30223;17.182;-96.766;2023-05-01T01:47:15;29.30;52.60
44517;DHT22;30223;17.182;-96.766;2023-05-01T01:49:46;29.30;52.60
44517;DHT22;30223;17.182;-96.766;2023-05-01T01:52:15;29.30;52.60
44517;DHT22;30223;17.182;-96.766;2023-05-01T01:54:59;29.30;52.70
44517;DHT22;30223;17.182;-96.766;2023-05-01T01:57:30;29.20;52.60
44517;DHT22;30223;17.182;-96.766;2023-05-01T01:59:58;29.20;52.60
44517;DHT22;30223;17.182;-96.766;2023-05-01T02:02:25;29.20;52.70
44517;DHT22;30223;17.182;-96.766;2023-05-01T02:04:53;29.20;52.70
44517;DHT22;30223;17.182;-96.766;2023-05-01T02:07:22;29.10;52.60
44517;DHT22;30223;17.182;-96.766;2023-05-01T02:09:51;29.20;52.80
44517;DHT22;30223;17.182;-96.766;2023-05-01T02:12:19;29.10;52.70
44517;DHT22;30223;17.182;-96.766;2023-05-01T02:14:47;29.10;52.70
44517;DHT22;30223;17.182;-96.766;2023-05-01T02:17:18;29.10;52.70
44517;DHT22;30223;17.182;-96.766;2023-05-01T02:19:46;29.10;52.80
44517;DHT22;30223;17.182;-96.766;2023-05-01T02:22:14;29.10;52.80
44517;DHT22;30223;17.182;-96.766;2023-05-01T02:24:43;29.10;52.80
44517;DHT22;30223;17.182;-96.766;2023-05-01T02:27:19;29.10;52.80
44517;DHT22;30223;17.182;-96.766;2023-05-01T02:29:46;29.00;52.70
44517;DHT22;30223;17.182;-96.766;2023-05-01T02:32:13;29.00;52.70
44517;DHT22;30223;17.182;-96.766;2023-05-01T02:34:40;29.00;52.70
44517;DHT22;30223;17.182;-96.766;2023-05-01T02:37:09;29.00;52.80
44517;DHT22;30223;17.182;-96.766;2023-05-01T02:39:37;29.00;52.80
44517;DHT22;30223;17.182;-96.766;2023-05-01T02:42:06;29.00;52.80
44517;DHT22;30223;17.182;-96.766;2023-05-01T02:44:41;29.00;52.80
44517;DHT22;30223;17.182;-96.766;2023-05-01T02:47:10;28.90;52.80
44517;DHT22;30223;17.182;-96.766;2023-05-01T02:49:41;28.90;52.80
44517;DHT22;30223;17.182;-96.766;2023-05-01T02:52:10;28.90;52.90
44517;DHT22;30223;17.182;-96.766;2023-05-01T02:54:38;28.90;52.70
44517;DHT22;30223;17.182;-96.766;2023-05-01T02:57:05;28.90;52.80
44517;DHT22;30223;17.182;-96.766;2023-05-01T02:59:32;28.90;52.80
44517;DHT22;30223;17.182;-96.766;2023-05-01T03:01:59;28.80;52.70
44517;DHT22;30223;17.182;-96.766;2023-05-01T03:04:26;28.90;52.80
44517;DHT22;30223;17.182;-96.766;2023-05-01T03:06:53;28.80;52.70
44517;DHT22;30223;17.182;-96.766;2023-05-01T03:09:20;28.80;52.80
44517;DHT22;30223;17.182;-96.766;2023-05-01T03:11:47;28.80;52.70
44517;DHT22;30223;17.182;-96.766;2023-05-01T03:14:14;28.80;52.80
44517;DHT22;30223;17.182;-96.766;2023-05-01T03:16:44;28.80;52.70
44517;DHT22;30223;17.182;-96.766;2023-05-01T03:19:11;28.80;52.70
44517;DHT22;30223;17.182;-96.766;2023-05-01T03:21:37;28.80;52.80
44517;DHT22;30223;17.182;-96.766;2023-05-01T03:24:04;28.80;52.70
44517;DHT22;30223;17.182;-96.766;2023-05-01T03:26:31;28.70;52.70
44517;DHT22;30223;17.182;-96.766;2023-05-01T03:28:58;28.70;52.70
44517;DHT22;30223;17.182;-96.766;2023-05-01T03:31:25;28.70;52.70
44517;DHT22;30223;17.182;-96.766;2023-05-01T03:33:52;28.70;52.70
44517;DHT22;30223;17.182;-96.766;2023-05-01T03:36:19;28.70;52.70
44517;DHT22;30223;17.182;-96.766;2023-05-01T03:38:47;28.70;52.70
44517;DHT22;30223;17.182;-96.766;2023-05-01T03:41:14;28.60;52.60
44517;DHT22;30223;17.182;-96.766;2023-05-01T03:43:41;28.70;52.70
44517;DHT22;30223;17.182;-96.766;2023-05-01T03:46:08;28.60;52.60
44517;DHT22;30223;17.182;-96.766;2023-05-01T03:48:34;28.60;52.60
44517;DHT22;30223;17.182;-96.766;2023-05-01T03:51:01;28.60;52.60
44517;DHT22;30223;17.182;-96.766;2023-05-01T03:53:28;28.60;52.50
44517;DHT22;30223;17.182;-96.766;2023-05-01T03:55:55;28.60;52.50
44517;DHT22;30223;17.182;-96.766;2023-05-01T03:58:22;28.60;52.50
44517;DHT22;30223;17.182;-96.766;2023-05-01T04:00:49;28.60;52.50
44517;DHT22;30223;17.182;-96.766;2023-05-01T04:03:16;28.60;52.50
44517;DHT22;30223;17.182;-96.766;2023-05-01T04:05:43;28.50;52.40
44517;DHT22;30223;17.182;-96.766;2023-05-01T04:08:09;28.50;52.40
44517;DHT22;30223;17.182;-96.766;2023-05-01T04:10:36;28.50;52.40
44517;DHT22;30223;17.182;-96.766;2023-05-01T04:13:03;28.50;52.40
44517;DHT22;30223;17.182;-96.766;2023-05-01T04:15:30;28.50;52.40
44517;DHT22;30223;17.182;-96.766;2023-05-01T04:17:57;28.50;52.40
44517;DHT22;30223;17.182;-96.766;2023-05-01T04:20:24;28.40;52.30
44517;DHT22;30223;17.182;-96.766;2023-05-01T04:22:51;28.40;52.30
44517;DHT22;30223;17.182;-96.766;2023-05-01T04:25:17;28.40;52.30
44517;DHT22;30223;17.182;-96.766;2023-05-01T04:27:44;28.40;52.30
44517;DHT22;30223;17.182;-96.766;2023-05-01T04:30:11;28.40;52.30
44517;DHT22;30223;17.182;-96.766;2023-05-01T04:32:38;28.40;52.20
44517;DHT22;30223;17.182;-96.766;2023-05-01T04:35:05;28.40;52.30
44517;DHT22;30223;17.182;-96.766;2023-05-01T04:37:32;28.40;52.30
44517;DHT22;30223;17.182;-96.766;2023-05-01T04:40:00;28.40;52.30
44517;DHT22;30223;17.182;-96.766;2023-05-01T04:42:31;28.40;52.20
44517;DHT22;30223;17.182;-96.766;2023-05-01T04:44:58;28.40;52.20
44517;DHT22;30223;17.182;-96.766;2023-05-01T04:47:29;28.40;52.30
44517;DHT22;30223;17.182;-96.766;2023-05-01T04:49:56;28.40;52.20
44517;DHT22;30223;17.182;-96.766;2023-05-01T04:52:25;28.30;52.20
44517;DHT22;30223;17.182;-96.766;2023-05-01T04:54:52;28.30;52.20
44517;DHT22;30223;17.182;-96.766;2023-05-01T04:57:19;28.30;52.10
44517;DHT22;30223;17.182;-96.766;2023-05-01T04:59:46;28.30;52.10
44517;DHT22;30223;17.182;-96.766;2023-05-01T05:02:13;28.30;52.10
44517;DHT22;30223;17.182;-96.766;2023-05-01T05:04:40;28.20;52.00
44517;DHT22;30223;17.182;-96.766;2023-05-01T05:07:06;28.30;52.10
44517;DHT22;30223;17.182;-96.766;2023-05-01T05:09:34;28.20;52.00
44517;DHT22;30223;17.182;-96.766;2023-05-01T05:12:01;28.20;52.00
44517;DHT22;30223;17.182;-96.766;2023-05-01T05:14:29;28.20;52.00
44517;DHT22;30223;17.182;-96.766;2023-05-01T05:16:56;28.20;52.00
44517;DHT22;30223;17.182;-96.766;2023-05-01T05:19:23;28.20;52.00
44517;DHT22;30223;17.182;-96.766;2023-05-01T05:21:50;28.10;51.90
44517;DHT22;30223;17.182;-96.766;2023-05-01T05:24:16;28.10;51.80
44517;DHT22;30223;17.182;-96.766;2023-05-01T05:26:43;28.10;51.80
44517;DHT22;30223;17.182;-96.766;2023-05-01T05:29:10;28.10;51.80
44517;DHT22;30223;17.182;-96.766;2023-05-01T05:31:37;28.10;51.80
44517;DHT22;30223;17.182;-96.766;2023-05-01T05:34:04;28.10;51.80
44517;DHT22;30223;17.182;-96.766;2023-05-01T05:36:30;28.10;51.80
44517;DHT22;30223;17.182;-96.766;2023-05-01T05:38:58;28.10;51.80
44517;DHT22;30223;17.182;-96.766;2023-05-01T05:41:25;28.10;51.80
44517;DHT22;30223;17.182;-96.766;2023-05-01T05:43:52;28.10;51.80
44517;DHT22;30223;17.182;-96.766;2023-05-01T05:46:19;28.10;51.70
44517;DHT22;30223;17.182;-96.766;2023-05-01T05:48:46;28.10;51.80
44517;DHT22;30223;17.182;-96.766;2023-05-01T05:51:13;28.00;51.70
44517;DHT22;30223;17.182;-96.766;2023-05-01T05:53:40;28.00;51.70
44517;DHT22;30223;17.182;-96.766;2023-05-01T05:56:06;28.00;51.70
44517;DHT22;30223;17.182;-96.766;2023-05-01T05:58:33;28.00;51.70
44517;DHT22;30223;17.182;-96.766;2023-05-01T06:01:00;28.00;51.70
44517;DHT22;30223;17.182;-96.766;2023-05-01T06:03:27;28.00;51.70
44517;DHT22;30223;17.182;-96.766;2023-05-01T06:05:53;28.00;51.60
44517;DHT22;30223;17.182;-96.766;2023-05-01T06:08:20;28.00;51.60
44517;DHT22;30223;17.182;-96.766;2023-05-01T06:10:47;28.00;51.60
44517;DHT22;30223;17.182;-96.766;2023-05-01T06:13:14;27.90;51.60
44517;DHT22;30223;17.182;-96.766;2023-05-01T06:15:41;27.90;51.60
44517;DHT22;30223;17.182;-96.766;2023-05-01T06:18:08;27.90;51.50
44517;DHT22;30223;17.182;-96.766;2023-05-01T06:20:35;27.90;51.50
44517;DHT22;30223;17.182;-96.766;2023-05-01T06:23:02;27.90;51.60
44517;DHT22;30223;17.182;-96.766;2023-05-01T06:25:29;27.80;51.50
44517;DHT22;30223;17.182;-96.766;2023-05-01T06:27:56;27.80;51.40
44517;DHT22;30223;17.182;-96.766;2023-05-01T06:30:23;27.90;51.50
44517;DHT22;30223;17.182;-96.766;2023-05-01T06:32:49;27.80;51.40
44517;DHT22;30223;17.182;-96.766;2023-05-01T06:35:16;27.80;51.40
44517;DHT22;30223;17.182;-96.766;2023-05-01T06:37:43;27.80;51.40
44517;DHT22;30223;17.182;-96.766;2023-05-01T06:40:10;27.80;51.40
44517;DHT22;30223;17.182;-96.766;2023-05-01T06:42:38;27.80;51.50
44517;DHT22;30223;17.182;-96.766;2023-05-01T06:45:06;27.80;51.40
44517;DHT22;30223;17.182;-96.766;2023-05-01T06:47:33;27.80;51.40
44517;DHT22;30223;17.182;-96.766;2023-05-01T06:50:00;27.70;51.30
44517;DHT22;30223;17.182;-96.766;2023-05-01T06:52:27;27.70;51.30
44517;DHT22;30223;17.182;-96.766;2023-05-01T06:54:53;27.70;51.30
44517;DHT22;30223;17.182;-96.766;2023-05-01T06:57:20;27.70;51.30
44517;DHT22;30223;17.182;-96.766;2023-05-01T06:59:47;27.70;51.30
44517;DHT22;30223;17.182;-96.766;2023-05-01T07:02:14;27.70;51.30
44517;DHT22;30223;17.182;-96.766;2023-05-01T07:04:40;27.60;51.20
44517;DHT22;30223;17.182;-96.766;2023-05-01T07:07:09;27.60;51.20
44517;DHT22;30223;17.182;-96.766;2023-05-01T07:09:36;27.60;51.20
44517;DHT22;30223;17.182;-96.766;2023-05-01T07:12:04;27.60;51.20
44517;DHT22;30223;17.182;-96.766;2023-05-01T07:14:33;27.60;51.20
44517;DHT22;30223;17.182;-96.766;2023-05-01T07:17:00;27.60;51.20
44517;DHT22;30223;17.182;-96.766;2023-05-01T07:19:27;27.50;51.20
44517;DHT22;30223;17.182;-96.766;2023-05-01T07:21:54;27.60;51.30
44517;DHT22;30223;17.182;-96.766;2023-05-01T07:24:20;27.50;51.10
44517;DHT22;30223;17.182;-96.766;2023-05-01T07:26:47;27.50;51.10
44517;DHT22;30223;17.182;-96.766;2023-05-01T07:29:14;27.50;51.10
44517;DHT22;30223;17.182;-96.766;2023-05-01T07:31:42;27.50;51.20
44517;DHT22;30223;17.182;-96.766;2023-05-01T07:34:08;27.50;51.20
44517;DHT22;30223;17.182;-96.766;2023-05-01T07:36:35;27.40;51.10
44517;DHT22;30223;17.182;-96.766;2023-05-01T07:39:02;27.50;51.10
44517;DHT22;30223;17.182;-96.766;2023-05-01T07:41:30;27.40;51.10
44517;DHT22;30223;17.182;-96.766;2023-05-01T07:44:00;27.40;51.20
44517;DHT22;30223;17.182;-96.766;2023-05-01T07:46:26;27.40;51.10
44517;DHT22;30223;17.182;-96.766;2023-05-01T07:48:53;27.40;51.10
44517;DHT22;30223;17.182;-96.766;2023-05-01T07:51:20;27.40;51.10
44517;DHT22;30223;17.182;-96.766;2023-05-01T07:53:47;27.40;51.10
44517;DHT22;30223;17.182;-96.766;2023-05-01T07:56:14;27.40;51.10
44517;DHT22;30223;17.182;-96.766;2023-05-01T07:58:41;27.40;51.70
44517;DHT22;30223;17.182;-96.766;2023-05-01T08:01:09;27.40;51.10
44517;DHT22;30223;17.182;-96.766;2023-05-01T08:03:36;27.30;51.00
44517;DHT22;30223;17.182;-96.766;2023-05-01T08:06:03;27.40;51.10
44517;DHT22;30223;17.182;-96.766;2023-05-01T08:08:29;27.30;51.00
44517;DHT22;30223;17.182;-96.766;2023-05-01T08:10:56;27.30;51.00
44517;DHT22;30223;17.182;-96.766;2023-05-01T08:13:23;27.30;51.10
44517;DHT22;30223;17.182;-96.766;2023-05-01T08:15:50;27.30;51.00
44517;DHT22;30223;17.182;-96.766;2023-05-01T08:18:17;27.20;51.00
44517;DHT22;30223;17.182;-96.766;2023-05-01T08:20:47;27.20;51.00
44517;DHT22;30223;17.182;-96.766;2023-05-01T08:23:15;27.20;51.00
44517;DHT22;30223;17.182;-96.766;2023-05-01T08:25:42;27.20;51.00
44517;DHT22;30223;17.182;-96.766;2023-05-01T08:28:13;27.20;51.40
44517;DHT22;30223;17.182;-96.766;2023-05-01T08:30:42;27.20;51.00
44517;DHT22;30223;17.182;-96.766;2023-05-01T08:33:09;27.20;51.10
44517;DHT22;30223;17.182;-96.766;2023-05-01T08:35:36;27.10;50.90
44517;DHT22;30223;17.182;-96.766;2023-05-01T08:38:06;27.20;51.10
44517;DHT22;30223;17.182;-96.766;2023-05-01T08:40:35;27.10;51.00
44517;DHT22;30223;17.182;-96.766;2023-05-01T08:43:02;27.10;51.00
44517;DHT22;30223;17.182;-96.766;2023-05-01T08:45:32;27.10;51.00
44517;DHT22;30223;17.182;-96.766;2023-05-01T08:48:06;27.10;50.90
44517;DHT22;30223;17.182;-96.766;2023-05-01T08:50:35;27.10;51.00
44517;DHT22;30223;17.182;-96.766;2023-05-01T08:53:04;27.10;51.00
44517;DHT22;30223;17.182;-96.766;2023-05-01T08:55:32;27.10;51.00
44517;DHT22;30223;17.182;-96.766;2023-05-01T08:58:01;27.00;50.90
44517;DHT22;30223;17.182;-96.766;2023-05-01T09:00:29;27.00;50.90
44517;DHT22;30223;17.182;-96.766;2023-05-01T09:03:00;27.00;50.90
44517;DHT22;30223;17.182;-96.766;2023-05-01T09:05:31;27.00;50.90
44517;DHT22;30223;17.182;-96.766;2023-05-01T09:07:58;27.00;51.00
44517;DHT22;30223;17.182;-96.766;2023-05-01T09:10:25;27.00;50.90
44517;DHT22;30223;17.182;-96.766;2023-05-01T09:12:55;27.00;51.00
44517;DHT22;30223;17.182;-96.766;2023-05-01T09:15:24;26.90;50.90
44517;DHT22;30223;17.182;-96.766;2023-05-01T09:17:53;27.00;50.90
44517;DHT22;30223;17.182;-96.766;2023-05-01T09:20:20;27.00;51.00
44517;DHT22;30223;17.182;-96.766;2023-05-01T09:22:47;26.90;50.80
44517;DHT22;30223;17.182;-96.766;2023-05-01T09:25:14;26.90;50.90
44517;DHT22;30223;17.182;-96.766;2023-05-01T09:27:41;26.90;50.90
44517;DHT22;30223;17.182;-96.766;2023-05-01T09:30:09;26.90;50.90
44517;DHT22;30223;17.182;-96.766;2023-05-01T09:32:35;26.80;50.80
44517;DHT22;30223;17.182;-96.766;2023-05-01T09:35:12;26.90;50.80
44517;DHT22;30223;17.182;-96.766;2023-05-01T09:37:40;26.80;50.80
44517;DHT22;30223;17.182;-96.766;2023-05-01T09:42:38;26.80;50.80
44517;DHT22;30223;17.182;-96.766;2023-05-01T09:45:12;26.80;50.80
44517;DHT22;30223;17.182;-96.766;2023-05-01T09:47:40;26.70;50.70
44517;DHT22;30223;17.182;-96.766;2023-05-01T09:50:08;26.70;50.70
44517;DHT22;30223;17.182;-96.766;2023-05-01T09:52:35;26.70;50.70
44517;DHT22;30223;17.182;-96.766;2023-05-01T09:55:15;26.70;50.70
44517;DHT22;30223;17.182;-96.766;2023-05-01T09:57:43;26.70;50.70
44517;DHT22;30223;17.182;-96.766;2023-05-01T10:00:12;26.70;50.70
44517;DHT22;30223;17.182;-96.766;2023-05-01T10:02:45;26.70;50.70
44517;DHT22;30223;17.182;-96.766;2023-05-01T10:05:12;26.70;50.70
44517;DHT22;30223;17.182;-96.766;2023-05-01T10:07:53;26.70;50.70
44517;DHT22;30223;17.182;-96.766;2023-05-01T10:10:22;26.70;50.80
44517;DHT22;30223;17.182;-96.766;2023-05-01T10:12:49;26.60;50.60
44517;DHT22;30223;17.182;-96.766;2023-05-01T10:15:17;26.60;50.60
44517;DHT22;30223;17.182;-96.766;2023-05-01T10:17:46;26.60;50.70
44517;DHT22;30223;17.182;-96.766;2023-05-01T10:20:14;26.60;50.60
44517;DHT22;30223;17.182;-96.766;2023-05-01T10:22:41;26.60;50.60
44517;DHT22;30223;17.182;-96.766;2023-05-01T10:25:12;26.50;50.60
44517;DHT22;30223;17.182;-96.766;2023-05-01T10:27:40;26.50;50.60
44517;DHT22;30223;17.182;-96.766;2023-05-01T10:30:08;26.50;50.60
44517;DHT22;30223;17.182;-96.766;2023-05-01T10:32:36;26.50;50.60
44517;DHT22;30223;17.182;-96.766;2023-05-01T10:35:13;26.50;50.60
44517;DHT22;30223;17.182;-96.766;2023-05-01T10:37:47;26.50;50.60
44517;DHT22;30223;17.182;-96.766;2023-05-01T10:43:28;26.40;50.50
44517;DHT22;30223;17.182;-96.766;2023-05-01T10:48:51;26.40;50.50
44517;DHT22;30223;17.182;-96.766;2023-05-01T10:51:23;26.40;50.50
44517;DHT22;30223;17.182;-96.766;2023-05-01T10:56:45;26.40;51.10
44517;DHT22;30223;17.182;-96.766;2023-05-01T10:59:12;26.40;50.50
44517;DHT22;30223;17.182;-96.766;2023-05-01T11:01:42;26.40;50.50
44517;DHT22;30223;17.182;-96.766;2023-05-01T11:09:49;26.30;50.40
44517;DHT22;30223;17.182;-96.766;2023-05-01T11:15:28;26.20;50.70
44517;DHT22;30223;17.182;-96.766;2023-05-01T11:17:56;26.20;50.40
44517;DHT22;30223;17.182;-96.766;2023-05-01T11:22:58;26.20;50.30
44517;DHT22;30223;17.182;-96.766;2023-05-01T11:25:26;26.20;50.30
44517;DHT22;30223;17.182;-96.766;2023-05-01T11:27:55;26.20;50.30
44517;DHT22;30223;17.182;-96.766;2023-05-01T11:30:23;26.20;50.30
44517;DHT22;30223;17.182;-96.766;2023-05-01T11:32:51;26.10;50.20
44517;DHT22;30223;17.182;-96.766;2023-05-01T11:35:23;26.10;50.20
44517;DHT22;30223;17.182;-96.766;2023-05-01T11:37:51;26.10;50.30
44517;DHT22;30223;17.182;-96.766;2023-05-01T11:40:25;26.10;50.30
44517;DHT22;30223;17.182;-96.766;2023-05-01T11:43:10;26.10;50.20
44517;DHT22;30223;17.182;-96.766;2023-05-01T11:45:37;26.10;50.30
44517;DHT22;30223;17.182;-96.766;2023-05-01T11:48:08;26.00;50.20
44517;DHT22;30223;17.182;-96.766;2023-05-01T11:50:39;26.00;50.20
44517;DHT22;30223;17.182;-96.766;2023-05-01T11:53:13;26.00;50.20
44517;DHT22;30223;17.182;-96.766;2023-05-01T11:55:44;26.00;50.20
44517;DHT22;30223;17.182;-96.766;2023-05-01T11:58:12;26.00;50.20
44517;DHT22;30223;17.182;-96.766;2023-05-01T12:00:40;25.90;50.10
44517;DHT22;30223;17.182;-96.766;2023-05-01T12:05:37;25.90;50.10
44517;DHT22;30223;17.182;-96.766;2023-05-01T12:08:09;25.90;50.10
44517;DHT22;30223;17.182;-96.766;2023-05-01T12:10:37;25.90;50.20
44517;DHT22;30223;17.182;-96.766;2023-05-01T12:13:05;25.80;50.10
44517;DHT22;30223;17.182;-96.766;2023-05-01T12:15:38;25.90;50.20
44517;DHT22;30223;17.182;-96.766;2023-05-01T12:18:06;25.90;50.10
44517;DHT22;30223;17.182;-96.766;2023-05-01T12:20:37;25.90;50.10
44517;DHT22;30223;17.182;-96.766;2023-05-01T12:23:05;25.80;50.10
44517;DHT22;30223;17.182;-96.766;2023-05-01T12:25:36;25.80;50.10
44517;DHT22;30223;17.182;-96.766;2023-05-01T12:28:14;25.80;50.10
44517;DHT22;30223;17.182;-96.766;2023-05-01T12:30:44;25.80;50.10
44517;DHT22;30223;17.182;-96.766;2023-05-01T12:33:19;25.80;50.10
44517;DHT22;30223;17.182;-96.766;2023-05-01T12:35:47;25.70;50.00
44517;DHT22;30223;17.182;-96.766;2023-05-01T12:38:16;25.70;50.00
44517;DHT22;30223;17.182;-96.766;2023-05-01T12:40:54;25.70;50.10
44517;DHT22;30223;17.182;-96.766;2023-05-01T12:43:41;25.70;50.10
44517;DHT22;30223;17.182;-96.766;2023-05-01T12:46:13;25.70;50.10
44517;DHT22;30223;17.182;-96.766;2023-05-01T12:48:40;25.70;50.10
44517;DHT22;30223;17.182;-96.766;2023-05-01T12:51:07;25.60;50.00
44517;DHT22;30223;17.182;-96.766;2023-05-01T12:53:34;25.70;50.10
44517;DHT22;30223;17.182;-96.766;2023-05-01T12:56:16;25.60;50.10
44517;DHT22;30223;17.182;-96.766;2023-05-01T12:58:48;25.60;50.00
44517;DHT22;30223;17.182;-96.766;2023-05-01T13:01:26;25.60;50.10
44517;DHT22;30223;17.182;-96.766;2023-05-01T13:03:54;25.60;50.00
44517;DHT22;30223;17.182;-96.766;2023-05-01T13:06:29;25.60;50.10
44517;DHT22;30223;17.182;-96.766;2023-05-01T13:09:08;25.50;50.00
44517;DHT22;30223;17.182;-96.766;2023-05-01T13:11:36;25.50;50.10
44517;DHT22;30223;17.182;-96.766;2023-05-01T13:14:09;25.50;50.10
44517;DHT22;30223;17.182;-96.766;2023-05-01T13:16:43;25.50;50.10
44517;DHT22;30223;17.182;-96.766;2023-05-01T13:19:12;25.50;50.10
44517;DHT22;30223;17.182;-96.766;2023-05-01T13:21:48;25.50;50.10
44517;DHT22;30223;17.182;-96.766;2023-05-01T13:24:15;25.50;50.10
44517;DHT22;30223;17.182;-96.766;2023-05-01T13:26:44;25.50;50.10
44517;DHT22;30223;17.182;-96.766;2023-05-01T13:29:14;25.40;50.00
44517;DHT22;30223;17.182;-96.766;2023-05-01T13:31:45;25.50;50.10
44517;DHT22;30223;17.182;-96.766;2023-05-01T13:34:15;25.40;50.00
44517;DHT22;30223;17.182;-96.766;2023-05-01T13:36:42;25.40;50.10
44517;DHT22;30223;17.182;-96.766;2023-05-01T13:39:09;25.40;50.60
44517;DHT22;30223;17.182;-96.766;2023-05-01T13:41:40;25.40;50.00
44517;DHT22;30223;17.182;-96.766;2023-05-01T13:44:12;25.40;50.10
44517;DHT22;30223;17.182;-96.766;2023-05-01T13:46:43;25.40;50.00
44517;DHT22;30223;17.182;-96.766;2023-05-01T13:49:11;25.40;50.00
44517;DHT22;30223;17.182;-96.766;2023-05-01T13:51:41;25.40;50.10
44517;DHT22;30223;17.182;-96.766;2023-05-01T13:54:10;25.40;50.00
44517;DHT22;30223;17.182;-96.766;2023-05-01T13:56:40;25.30;49.90
44517;DHT22;30223;17.182;-96.766;2023-05-01T13:59:08;25.40;50.10
44517;DHT22;30223;17.182;-96.766;2023-05-01T14:01:39;25.40;50.00
44517;DHT22;30223;17.182;-96.766;2023-05-01T14:04:16;25.30;49.90
44517;DHT22;30223;17.182;-96.766;2023-05-01T14:06:44;25.30;49.90
44517;DHT22;30223;17.182;-96.766;2023-05-01T14:09:16;25.30;50.00
44517;DHT22;30223;17.182;-96.766;2023-05-01T14:11:45;25.30;50.00
44517;DHT22;30223;17.182;-96.766;2023-05-01T14:14:16;25.30;50.00
44517;DHT22;30223;17.182;-96.766;2023-05-01T14:16:50;25.30;50.00
44517;DHT22;30223;17.182;-96.766;2023-05-01T14:19:17;25.30;50.00
44517;DHT22;30223;17.182;-96.766;2023-05-01T14:21:44;25.30;50.00
44517;DHT22;30223;17.182;-96.766;2023-05-01T14:24:13;25.30;50.00
44517;DHT22;30223;17.182;-96.766;2023-05-01T14:26:43;25.30;49.90
44517;DHT22;30223;17.182;-96.766;2023-05-01T14:29:25;25.30;49.90
44517;DHT22;30223;17.182;-96.766;2023-05-01T14:31:53;25.30;49.90
44517;DHT22;30223;17.182;-96.766;2023-05-01T14:34:21;25.30;49.90
44517;DHT22;30223;17.182;-96.766;2023-05-01T14:36:47;25.30;49.90
44517;DHT22;30223;17.182;-96.766;2023-05-01T14:39:14;25.30;49.90
44517;DHT22;30223;17.182;-96.766;2023-05-01T14:41:42;25.30;49.90
44517;DHT22;30223;17.182;-96.766;2023-05-01T14:44:17;25.30;49.90
44517;DHT22;30223;17.182;-96.766;2023-05-01T14:46:48;25.30;49.90
44517;DHT22;30223;17.182;-96.766;2023-05-01T14:49:18;25.30;50.00
44517;DHT22;30223;17.182;-96.766;2023-05-01T14:51:46;25.30;49.90
44517;DHT22;30223;17.182;-96.766;2023-05-01T14:54:14;25.30;49.90
44517;DHT22;30223;17.182;-96.766;2023-05-01T14:56:44;25.30;49.90
44517;DHT22;30223;17.182;-96.766;2023-05-01T14:59:13;25.30;49.90
44517;DHT22;30223;17.182;-96.766;2023-05-01T15:01:40;25.30;50.00
44517;DHT22;30223;17.182;-96.766;2023-05-01T15:04:06;25.30;50.00
44517;DHT22;30223;17.182;-96.766;2023-05-01T15:06:34;25.30;49.90
44517;DHT22;30223;17.182;-96.766;2023-05-01T15:09:03;25.30;50.00
44517;DHT22;30223;17.182;-96.766;2023-05-01T15:11:30;25.30;49.90
44517;DHT22;30223;17.182;-96.766;2023-05-01T15:13:57;25.30;49.90
44517;DHT22;30223;17.182;-96.766;2023-05-01T15:16:24;25.30;49.90
44517;DHT22;30223;17.182;-96.766;2023-05-01T15:18:51;25.40;49.90
44517;DHT22;30223;17.182;-96.766;2023-05-01T15:21:18;25.30;49.90
44517;DHT22;30223;17.182;-96.766;2023-05-01T15:23:45;25.40;49.90
44517;DHT22;30223;17.182;-96.766;2023-05-01T15:26:11;25.40;49.90
44517;DHT22;30223;17.182;-96.766;2023-05-01T15:28:39;25.40;49.90
44517;DHT22;30223;17.182;-96.766;2023-05-01T15:31:05;25.40;49.90
44517;DHT22;30223;17.182;-96.766;2023-05-01T15:33:32;25.40;49.90
44517;DHT22;30223;17.182;-96.766;2023-05-01T15:35:59;25.50;50.00
44517;DHT22;30223;17.182;-96.766;2023-05-01T15:38:26;25.50;50.00
44517;DHT22;30223;17.182;-96.766;2023-05-01T15:40:53;25.50;50.00
44517;DHT22;30223;17.182;-96.766;2023-05-01T15:43:21;25.50;50.00
44517;DHT22;30223;17.182;-96.766;2023-05-01T15:45:49;25.50;50.00
44517;DHT22;30223;17.182;-96.766;2023-05-01T15:48:16;25.50;49.90
44517;DHT22;30223;17.182;-96.766;2023-05-01T15:50:43;25.50;49.90
44517;DHT22;30223;17.182;-96.766;2023-05-01T15:53:10;25.60;49.90
44517;DHT22;30223;17.182;-96.766;2023-05-01T15:55:37;25.60;49.90
44517;DHT22;30223;17.182;-96.766;2023-05-01T15:58:03;25.60;49.80
44517;DHT22;30223;17.182;-96.766;2023-05-01T16:00:30;25.60;49.90